EDT,Max TemperatureF,Mean TemperatureF,Min TemperatureF,Max Dew PointF,MeanDew PointF,Min DewpointF,Max Humidity, Mean Humidity, Min Humidity, Max Sea Level PressureIn, Mean Sea Level PressureIn, Min Sea Level PressureIn, Max VisibilityMiles, Mean VisibilityMiles, Min VisibilityMiles, Max Wind SpeedMPH, Mean Wind SpeedMPH, Max Gust SpeedMPH,PrecipitationIn, CloudCover, Events, WindDirDegrees
2013-4-1,51,42,34,43,32,12,100,76,25,29.99,29.77,29.70,10,5,0,14,3,28,0.01,5,Fog-Rain,274
2013-4-2,43,34,26,19,14,10,75,44,28,30.17,30.07,29.99,10,10,10,15,6,25,0.00,4,,286
2013-4-3,44,32,21,19,14,8,89,47,27,30.40,30.25,30.16,10,10,10,16,6,26,0.00,1,,298
2013-4-4,51,35,19,20,16,12,81,47,23,30.43,30.27,30.05,10,10,10,12,3,17,0.00,0,,202
2013-4-5,61,44,28,25,19,10,79,39,16,30.09,29.95,29.83,10,10,10,17,4,26,0.00,0,,324
2013-4-6,52,41,30,21,16,10,64,39,20,30.36,30.26,30.12,10,10,10,9,4,,0.00,0,,67
2013-4-7,66,54,43,40,30,18,59,41,33,30.22,30.06,29.92,10,10,10,18,11,29,0.00,3,Rain,182
2013-4-8,77,56,37,47,42,36,93,56,32,30.09,29.99,29.91,10,10,7,10,3,,0.00,2,,174
2013-4-9,82,65,48,52,46,42,83,49,25,30.05,29.96,29.86,10,10,10,14,4,21,0.00,1,,241
2013-4-10,84,68,53,61,55,50,96,66,38,29.93,29.86,29.77,10,8,2,14,3,34,0.37,5,Rain-Thunderstorm,262
2013-4-11,61,56,51,59,50,45,100,84,75,29.95,29.90,29.82,10,10,5,14,6,20,0.05,7,Rain,20
2013-4-12,51,48,46,47,45,39,96,89,66,29.89,29.75,29.67,10,6,1,13,7,20,0.68,8,Rain-Thunderstorm,123
2013-4-13,55,47,39,38,34,31,89,58,44,29.97,29.90,29.83,10,10,10,12,4,18,0.00,5,,294
2013-4-14,62,50,39,42,32,24,83,52,34,30.16,30.09,29.99,10,10,10,14,5,17,0.00,4,,311
2013-4-15,66,54,45,47,40,32,82,60,52,30.28,30.23,30.15,10,10,10,14,5,,0.00,5,,151
2013-4-16,70,62,53,59,52,43,93,74,61,30.27,30.19,30.08,10,9,3,14,8,24,0.09,6,Rain-Thunderstorm,190
2013-4-17,68,58,48,61,48,34,100,74,28,30.30,30.20,30.13,10,7,0,14,3,,0.21,5,Fog-Rain,18
2013-4-18,64,54,46,57,48,35,89,73,39,30.24,30.13,29.98,10,10,8,16,5,23,0.00,6,,161
2013-4-19,73,62,50,64,57,38,100,79,63,29.97,29.72,29.55,10,8,0,23,9,37,0.88,7,Fog-Rain,208
2013-4-20,53,46,39,35,28,21,60,49,35,30.40,30.06,29.80,10,10,10,17,10,29,0.00,5,,286
2013-4-21,53,40,27,32,25,20,89,57,30,30.63,30.55,30.43,10,10,10,15,5,18,0.00,0,,14
2013-4-22,57,46,34,34,30,24,92,57,33,30.61,30.53,30.44,10,10,10,15,4,22,0.00,0,,134
2013-4-23,61,51,41,41,36,30,89,65,42,30.45,30.29,30.11,10,10,10,9,2,,0.00,5,,103
2013-4-24,72,52,32,59,46,14,96,76,48,30.21,29.95,29.72,10,7,2,18,5,32,0.31,4,Rain,210
2013-4-25,60,51,42,39,32,24,82,52,25,30.30,30.21,30.11,10,10,10,13,7,24,0.00,2,,283
2013-4-26,62,52,39,37,32,26,83,51,26,30.48,30.40,30.32,10,10,10,9,3,,0.00,0,,337
2013-4-27,70,51,33,43,35,30,92,60,23,30.46,30.37,30.27,10,10,8,6,1,,0.00,0,,250
2013-4-28,66,52,39,46,41,37,97,65,36,30.28,30.21,30.15,10,10,6,15,4,22,0.02,3,Rain,185
2013-4-29,57,54,51,56,51,37,96,85,51,30.15,30.11,30.07,10,7,2,12,6,,0.14,8,Rain,144
2013-4-30,66,60,54,54,51,38,97,77,51,30.32,30.22,30.14,10,9,5,8,4,,0.01,7,,123